Time;durP1;ratioP1;P1;durP2;ratioP2;P2;SDS_P1;SDS_P2;PMS_P1;PMS_P2;Temp;Humidity;BMP_temperature;BMP_pressure;BME280_temperature;BME280_humidity;BME280_pressure;Samples;Min_cycle;Max_cycle;Signal;HPM_P1;HPM_P2
2021/07/06 00:00:54;;;;;;;2.13;1.43;;;;;;;;;;5015740;28;20648;-75
2021/07/06 00:03:58;;;;;;;4.03;1.80;;;;;;;;;;5015309;28;20205;-75
2021/07/06 00:07:03;;;;;;;1.93;1.40;;;;;;;;;;5015156;28;20201;-75
2021/07/06 00:10:09;;;;;;;1.63;1.47;;;;;;;;;;5016351;28;20181;-75
2021/07/06 00:13:13;;;;;;;4.13;1.50;;;;;;;;;;4996154;28;20206;-75
2021/07/06 00:16:17;;;;;;;2.97;1.30;;;;;;;;;;5003098;28;20197;-76
2021/07/06 00:19:21;;;;;;;1.53;1.43;;;;;;;;;;5014980;28;20220;-75
2021/07/06 00:22:25;;;;;;;4.50;1.50;;;;;;;;;;5015076;28;20513;-75
2021/07/06 00:25:30;;;;;;;2.90;1.40;;;;;;;;;;5014194;28;20201;-75
2021/07/06 00:28:34;;;;;;;1.60;1.40;;;;;;;;;;5015430;28;20229;-75
2021/07/06 00:31:38;;;;;;;1.50;1.40;;;;;;;;;;5015888;28;20205;-74
2021/07/06 00:34:42;;;;;;;2.90;1.50;;;;;;;;;;5015285;28;20193;-75
2021/07/06 00:37:46;;;;;;;1.67;1.50;;;;;;;;;;5003693;28;20683;-75
2021/07/06 00:40:55;;;;;;;1.50;1.40;;;;;;;;;;5015435;28;20197;-75
2021/07/06 00:44:00;;;;;;;2.30;1.47;;;;;;;;;;5002108;28;21234;-76
2021/07/06 00:47:05;;;;;;;3.47;1.23;;;;;;;;;;5002249;28;20189;-75
2021/07/06 00:50:17;;;;;;;1.90;1.30;;;;;;;;;;5014724;28;20197;-75
2021/07/06 00:53:21;;;;;;;1.40;1.30;;;;;;;;;;5014512;28;20209;-75
2021/07/06 00:56:25;;;;;;;2.50;1.40;;;;;;;;;;5007603;28;20186;-75
2021/07/06 00:59:29;;;;;;;5.90;1.50;;;;;;;;;;5012698;28;20217;-75
2021/07/06 01:02:34;;;;;;;2.10;1.50;;;;;;;;;;5015374;28;20170;-75
2021/07/06 01:05:41;;;;;;;3.67;1.53;;;;;;;;;;5013665;28;20189;-75
2021/07/06 01:08:46;;;;;;;2.67;1.50;;;;;;;;;;5014189;28;20217;-75
2021/07/06 01:11:50;;;;;;;8.03;1.70;;;;;;;;;;5014225;28;20205;-74
2021/07/06 01:14:54;;;;;;;3.53;1.50;;;;;;;;;;5014104;28;20173;-75
2021/07/06 01:18:15;;;;;;;2.00;1.53;;;;;;;;;;5004084;28;20220;-75
2021/07/06 01:21:20;;;;;;;2.03;1.60;;;;;;;;;;5014083;28;20189;-75
2021/07/06 01:24:24;;;;;;;1.60;1.30;;;;;;;;;;5013876;28;20173;-75
2021/07/06 01:27:28;;;;;;;4.00;1.60;;;;;;;;;;5013239;28;20213;-75
2021/07/06 01:30:33;;;;;;;3.60;1.40;;;;;;;;;;5014087;28;20197;-74
2021/07/06 01:33:38;;;;;;;4.93;1.80;;;;;;;;;;5013057;28;20210;-75
2021/07/06 01:36:43;;;;;;;1.70;1.40;;;;;;;;;;5014225;28;20288;-75
2021/07/06 01:39:48;;;;;;;6.53;1.70;;;;;;;;;;5014547;28;20181;-75
2021/07/06 01:42:53;;;;;;;2.73;1.53;;;;;;;;;;5014279;28;20182;-75
2021/07/06 01:45:57;;;;;;;2.47;1.70;;;;;;;;;;5014402;28;20181;-75
2021/07/06 01:49:03;;;;;;;2.87;1.83;;;;;;;;;;4994718;28;20221;-75
2021/07/06 01:52:07;;;;;;;3.27;1.67;;;;;;;;;;4994327;28;20214;-75
2021/07/06 01:55:17;;;;;;;1.40;1.30;;;;;;;;;;5010053;28;20534;-76
2021/07/06 01:58:25;;;;;;;1.77;1.50;;;;;;;;;;5013347;28;20213;-75
2021/07/06 02:01:29;;;;;;;1.90;1.50;;;;;;;;;;5013316;28;20197;-75
2021/07/06 02:04:33;;;;;;;3.10;1.70;;;;;;;;;;5012458;28;20174;-75
2021/07/06 02:07:37;;;;;;;2.47;1.77;;;;;;;;;;5010920;28;20189;-75
2021/07/06 02:10:44;;;;;;;3.80;1.47;;;;;;;;;;5013144;28;20189;-75
2021/07/06 02:13:48;;;;;;;3.00;1.80;;;;;;;;;;5014002;28;20549;-75
2021/07/06 02:16:52;;;;;;;1.83;1.40;;;;;;;;;;5005299;28;20640;-75
2021/07/06 02:19:56;;;;;;;3.03;1.83;;;;;;;;;;5012813;28;20201;-75
2021/07/06 02:23:06;;;;;;;2.30;1.60;;;;;;;;;;5012695;28;20201;-75
2021/07/06 02:26:09;;;;;;;3.80;1.63;;;;;;;;;;5013178;28;20221;-75
2021/07/06 02:29:14;;;;;;;9.10;1.50;;;;;;;;;;5012912;28;20221;-75
2021/07/06 02:32:18;;;;;;;3.73;1.40;;;;;;;;;;5013940;28;20209;-75
2021/07/06 02:35:27;;;;;;;2.37;1.50;;;;;;;;;;5013767;28;20197;-75
2021/07/06 02:38:31;;;;;;;5.17;1.47;;;;;;;;;;5013014;28;20217;-75
2021/07/06 02:41:35;;;;;;;2.40;1.47;;;;;;;;;;5013689;28;20177;-75
2021/07/06 02:44:39;;;;;;;3.43;1.60;;;;;;;;;;5012948;28;20189;-75
2021/07/06 02:47:44;;;;;;;3.57;1.50;;;;;;;;;;5012538;28;20232;-75
2021/07/06 02:50:48;;;;;;;5.00;1.60;;;;;;;;;;5013386;28;20186;-75
2021/07/06 02:53:53;;;;;;;1.60;1.50;;;;;;;;;;5012990;28;20561;-75
2021/07/06 02:56:57;;;;;;;2.13;1.60;;;;;;;;;;5013057;28;20541;-75
2021/07/06 03:00:05;;;;;;;1.63;1.30;;;;;;;;;;5008937;28;20194;-76
2021/07/06 03:03:10;;;;;;;1.53;1.43;;;;;;;;;;5013473;28;20190;-75
2021/07/06 03:06:14;;;;;;;1.93;1.60;;;;;;;;;;5009714;28;20198;-75
2021/07/06 03:09:18;;;;;;;2.13;1.50;;;;;;;;;;4994063;28;20233;-75
2021/07/06 03:12:22;;;;;;;3.47;1.60;;;;;;;;;;5008924;28;20189;-75
2021/07/06 03:15:28;;;;;;;4.07;1.40;;;;;;;;;;5014691;28;20541;-75
2021/07/06 03:18:33;;;;;;;2.87;1.27;;;;;;;;;;5015945;28;20217;-75
2021/07/06 03:21:36;;;;;;;4.60;1.50;;;;;;;;;;5015924;28;20185;-75
2021/07/06 03:24:41;;;;;;;2.17;1.50;;;;;;;;;;5016651;28;20182;-75
2021/07/06 03:27:45;;;;;;;4.93;1.53;;;;;;;;;;5016686;28;20229;-75
2021/07/06 03:30:49;;;;;;;1.97;1.27;;;;;;;;;;5016057;28;20182;-75
2021/07/06 03:33:53;;;;;;;3.13;1.60;;;;;;;;;;5016054;28;20664;-75
2021/07/06 03:36:57;;;;;;;6.03;1.40;;;;;;;;;;5016285;28;20201;-75
2021/07/06 03:40:03;;;;;;;2.70;1.50;;;;;;;;;;5016345;28;20193;-75
2021/07/06 03:43:08;;;;;;;1.50;1.40;;;;;;;;;;5004389;28;20182;-75
2021/07/06 03:46:12;;;;;;;2.27;1.60;;;;;;;;;;5015051;28;20190;-75
2021/07/06 03:49:16;;;;;;;1.47;1.37;;;;;;;;;;5015653;28;20224;-75
2021/07/06 03:52:20;;;;;;;1.57;1.47;;;;;;;;;;4996046;28;20186;-76
2021/07/06 03:55:26;;;;;;;4.03;1.20;;;;;;;;;;5002084;28;20533;-74
2021/07/06 03:58:30;;;;;;;2.73;2.20;;;;;;;;;;5016712;28;20217;-74
2021/07/06 04:01:34;;;;;;;2.97;1.70;;;;;;;;;;5015699;28;20201;-74
2021/07/06 04:04:38;;;;;;;2.37;1.80;;;;;;;;;;5015448;28;20201;-74
2021/07/06 04:07:43;;;;;;;2.93;1.53;;;;;;;;;;4995600;28;20217;-73
2021/07/06 04:10:47;;;;;;;1.40;1.30;;;;;;;;;;5005591;28;20193;-73
2021/07/06 04:13:51;;;;;;;1.60;1.27;;;;;;;;;;5012220;28;20217;-73
2021/07/06 04:16:55;;;;;;;2.03;1.50;;;;;;;;;;5011447;28;20201;-73
2021/07/06 04:20:00;;;;;;;1.97;1.47;;;;;;;;;;5012363;28;20185;-73
2021/07/06 04:23:04;;;;;;;1.87;1.77;;;;;;;;;;5011747;28;20193;-73
2021/07/06 04:26:08;;;;;;;4.30;1.47;;;;;;;;;;5003303;28;20217;-73
2021/07/06 04:29:12;;;;;;;3.03;1.70;;;;;;;;;;5012047;28;20229;-73
2021/07/06 04:32:17;;;;;;;3.73;1.50;;;;;;;;;;5029540;23;20237;-71
2021/07/06 04:35:22;;;;;;;4.23;1.53;;;;;;;;;;5002414;28;20215;-71
2021/07/06 04:38:26;;;;;;;4.27;1.67;;;;;;;;;;5015472;28;20233;-71
2021/07/06 04:41:30;;;;;;;1.50;1.27;;;;;;;;;;5015005;28;20189;-71
2021/07/06 04:44:34;;;;;;;2.77;1.30;;;;;;;;;;5015360;28;20193;-72
2021/07/06 04:47:39;;;;;;;1.67;1.27;;;;;;;;;;4995647;28;20545;-72
2021/07/06 04:50:43;;;;;;;2.57;1.30;;;;;;;;;;4995861;28;20186;-72
2021/07/06 04:53:47;;;;;;;6.17;1.40;;;;;;;;;;5000280;28;20671;-71
2021/07/06 04:56:52;;;;;;;2.10;1.30;;;;;;;;;;5014532;28;20201;-71
2021/07/06 04:59:57;;;;;;;1.80;1.13;;;;;;;;;;4997186;28;20197;-71
2021/07/06 05:03:01;;;;;;;1.70;1.43;;;;;;;;;;5012952;28;20198;-71
2021/07/06 05:06:05;;;;;;;3.53;1.40;;;;;;;;;;5015305;28;20178;-72
2021/07/06 05:09:09;;;;;;;5.93;1.60;;;;;;;;;;4994939;28;20225;-72
2021/07/06 05:12:13;;;;;;;4.67;1.37;;;;;;;;;;5004316;28;20553;-71
2021/07/06 05:15:17;;;;;;;1.30;1.13;;;;;;;;;;5014028;28;20197;-72
2021/07/06 05:18:21;;;;;;;3.40;1.63;;;;;;;;;;5003482;28;20222;-71
2021/07/06 05:21:25;;;;;;;4.20;1.60;;;;;;;;;;4997679;28;21958;-71
2021/07/06 05:24:29;;;;;;;3.83;1.67;;;;;;;;;;4997412;28;20186;-71
2021/07/06 05:27:33;;;;;;;2.63;1.20;;;;;;;;;;4995493;28;20672;-71
2021/07/06 05:30:37;;;;;;;3.23;1.40;;;;;;;;;;5012883;28;20667;-72
2021/07/06 05:33:41;;;;;;;2.63;1.27;;;;;;;;;;5002378;28;20209;-72
2021/07/06 05:36:47;;;;;;;1.73;1.33;;;;;;;;;;5014233;28;20541;-71
2021/07/06 05:39:51;;;;;;;3.53;1.70;;;;;;;;;;5013256;28;20537;-71
2021/07/06 05:42:56;;;;;;;2.10;1.73;;;;;;;;;;5001537;28;20215;-71
2021/07/06 05:46:00;;;;;;;3.63;1.30;;;;;;;;;;4994353;28;20178;-72
2021/07/06 05:49:04;;;;;;;1.53;1.30;;;;;;;;;;4994655;28;20217;-72
2021/07/06 05:52:08;;;;;;;4.10;1.30;;;;;;;;;;4994236;28;20653;-71
2021/07/06 05:55:12;;;;;;;2.10;1.30;;;;;;;;;;4993908;28;20213;-72
2021/07/06 05:58:17;;;;;;;2.87;1.80;;;;;;;;;;5004386;28;20217;-71
2021/07/06 06:01:20;;;;;;;4.37;1.50;;;;;;;;;;5013490;28;20197;-71
2021/07/06 06:04:26;;;;;;;3.30;1.30;;;;;;;;;;5013436;28;20185;-71
2021/07/06 06:07:30;;;;;;;1.80;1.30;;;;;;;;;;5013678;28;20194;-71
2021/07/06 06:10:35;;;;;;;1.73;1.30;;;;;;;;;;5012788;28;20193;-71
2021/07/06 06:13:39;;;;;;;1.47;1.17;;;;;;;;;;5014103;28;20231;-72
2021/07/06 06:16:43;;;;;;;3.50;1.37;;;;;;;;;;4994261;28;20182;-72
2021/07/06 06:19:47;;;;;;;2.00;1.20;;;;;;;;;;5011965;28;20217;-72
2021/07/06 06:22:51;;;;;;;1.10;1.00;;;;;;;;;;5006538;28;20540;-71
2021/07/06 06:25:56;;;;;;;2.37;1.30;;;;;;;;;;4994277;28;20173;-72
2021/07/06 06:29:00;;;;;;;2.60;1.30;;;;;;;;;;4999406;28;20213;-71
2021/07/06 06:32:04;;;;;;;3.33;1.20;;;;;;;;;;5013487;28;20208;-72
2021/07/06 06:35:09;;;;;;;2.50;1.20;;;;;;;;;;5012691;28;20209;-73
2021/07/06 06:38:13;;;;;;;2.17;1.13;;;;;;;;;;5012489;28;20695;-72
2021/07/06 06:41:17;;;;;;;1.97;1.03;;;;;;;;;;4994040;28;20190;-73
2021/07/06 06:44:21;;;;;;;1.53;1.00;;;;;;;;;;4993551;28;20191;-73
2021/07/06 06:47:26;;;;;;;2.13;1.00;;;;;;;;;;5012044;28;20185;-71
2021/07/06 06:50:30;;;;;;;1.80;1.20;;;;;;;;;;4995802;28;20174;-71
2021/07/06 06:53:34;;;;;;;1.83;1.00;;;;;;;;;;5013165;28;20209;-71
2021/07/06 06:56:40;;;;;;;3.23;1.00;;;;;;;;;;5016789;28;20193;-72
2021/07/06 06:59:44;;;;;;;3.17;0.97;;;;;;;;;;5035130;28;20224;-72
2021/07/06 07:02:50;;;;;;;1.07;0.90;;;;;;;;;;5036877;28;20176;-72
2021/07/06 07:05:54;;;;;;;2.70;1.00;;;;;;;;;;5037046;28;20180;-72
2021/07/06 07:08:58;;;;;;;2.47;0.90;;;;;;;;;;5024993;28;20204;-72
2021/07/06 07:12:03;;;;;;;1.53;0.90;;;;;;;;;;5011959;28;20205;-71
2021/07/06 07:15:10;;;;;;;2.03;1.00;;;;;;;;;;4996685;28;20218;-72
2021/07/06 07:18:14;;;;;;;1.20;0.90;;;;;;;;;;4997258;28;20226;-72
2021/07/06 07:21:18;;;;;;;3.17;1.00;;;;;;;;;;4996520;28;20186;-72
2021/07/06 07:24:22;;;;;;;2.23;0.90;;;;;;;;;;4997327;28;20178;-72
2021/07/06 07:27:26;;;;;;;2.23;0.90;;;;;;;;;;4997061;28;20178;-72
2021/07/06 07:30:31;;;;;;;2.10;0.70;;;;;;;;;;4997407;28;20202;-72
2021/07/06 07:33:35;;;;;;;5.10;0.90;;;;;;;;;;4997626;28;20507;-72
2021/07/06 07:36:41;;;;;;;3.27;0.80;;;;;;;;;;4996782;28;20202;-72
2021/07/06 07:39:46;;;;;;;2.40;0.80;;;;;;;;;;4997054;28;20220;-73
2021/07/06 07:42:50;;;;;;;4.50;0.80;;;;;;;;;;4997121;28;20641;-72
2021/07/06 07:45:54;;;;;;;3.73;0.80;;;;;;;;;;4996226;28;20642;-72
2021/07/06 07:48:58;;;;;;;1.17;0.70;;;;;;;;;;4996053;28;20228;-73
2021/07/06 07:52:03;;;;;;;2.00;0.97;;;;;;;;;;4996728;28;20186;-72
2021/07/06 07:55:07;;;;;;;1.50;0.70;;;;;;;;;;4996844;28;20543;-73
2021/07/06 07:58:11;;;;;;;1.70;0.70;;;;;;;;;;4995639;28;20690;-72
2021/07/06 08:01:15;;;;;;;2.95;0.70;;;;;;;;;;4994421;28;20186;-72
2021/07/06 08:04:19;;;;;;;7.63;0.90;;;;;;;;;;4984423;28;20180;-73
2021/07/06 08:07:27;;;;;;;1.73;0.80;;;;;;;;;;4996185;28;20204;-72
2021/07/06 08:10:31;;;;;;;0.90;0.70;;;;;;;;;;4996307;28;20188;-73
2021/07/06 08:13:35;;;;;;;2.13;0.98;;;;;;;;;;5002108;28;20649;-72
2021/07/06 08:16:39;;;;;;;2.00;0.82;;;;;;;;;;4996272;28;20199;-72
2021/07/06 08:19:43;;;;;;;1.95;0.70;;;;;;;;;;4996073;28;20223;-72
2021/07/06 08:22:47;;;;;;;0.70;0.63;;;;;;;;;;4995525;28;20182;-73
2021/07/06 08:25:52;;;;;;;0.82;0.80;;;;;;;;;;4996290;28;20178;-73
2021/07/06 08:28:56;;;;;;;1.25;1.00;;;;;;;;;;4995987;28;20215;-72
2021/07/06 08:32:01;;;;;;;1.42;0.70;;;;;;;;;;4996088;28;20205;-73
2021/07/06 08:35:06;;;;;;;4.28;1.00;;;;;;;;;;4995814;28;20228;-73
2021/07/06 08:38:12;;;;;;;1.75;0.80;;;;;;;;;;4995876;28;20220;-73
2021/07/06 08:41:16;;;;;;;2.20;0.85;;;;;;;;;;4995940;28;20517;-73
2021/07/06 08:44:21;;;;;;;2.65;0.70;;;;;;;;;;4994816;28;20200;-72
2021/07/06 08:47:25;;;;;;;0.77;0.70;;;;;;;;;;5013754;28;20653;-72
2021/07/06 08:50:29;;;;;;;1.02;0.70;;;;;;;;;;5034828;28;20177;-72
2021/07/06 08:53:33;;;;;;;2.28;0.80;;;;;;;;;;5009539;28;20214;-72
2021/07/06 08:56:37;;;;;;;3.53;0.63;;;;;;;;;;4995795;28;20178;-72
2021/07/06 08:59:42;;;;;;;1.23;0.70;;;;;;;;;;4995828;28;20230;-72
2021/07/06 09:03:05;;;;;;;1.23;0.73;;;;;;;;;;5003298;28;20214;-72
2021/07/06 09:06:11;;;;;;;0.70;0.70;;;;;;;;;;5012294;28;20198;-73
2021/07/06 09:09:19;;;;;;;6.93;0.80;;;;;;;;;;5002517;28;20241;-72
2021/07/06 09:12:36;;;;;;;3.13;0.80;;;;;;;;;;4993911;28;20191;-73
2021/07/06 09:15:49;;;;;;;1.15;0.73;;;;;;;;;;4995324;28;20281;-73
2021/07/06 09:18:54;;;;;;;3.65;0.80;;;;;;;;;;5006817;28;20221;-72
2021/07/06 09:22:21;;;;;;;0.82;0.70;;;;;;;;;;4995171;28;20179;-72
2021/07/06 09:25:26;;;;;;;1.67;0.80;;;;;;;;;;5026603;28;20196;-72
2021/07/06 09:28:33;;;;;;;0.90;0.70;;;;;;;;;;5033481;28;20221;-72
2021/07/06 09:31:37;;;;;;;1.63;0.63;;;;;;;;;;5033965;28;20212;-73
2021/07/06 09:34:43;;;;;;;2.60;0.90;;;;;;;;;;5033871;28;20209;-73
2021/07/06 09:37:59;;;;;;;1.98;0.60;;;;;;;;;;5011516;28;20222;-72
2021/07/06 09:41:18;;;;;;;2.60;0.80;;;;;;;;;;5011383;28;20198;-72
2021/07/06 09:44:29;;;;;;;1.23;0.63;;;;;;;;;;5014154;28;20182;-72
2021/07/06 09:47:34;;;;;;;1.58;0.63;;;;;;;;;;5013951;28;20189;-72
2021/07/06 09:50:39;;;;;;;0.82;0.70;;;;;;;;;;5007876;28;20281;-72
2021/07/06 09:53:50;;;;;;;2.50;0.75;;;;;;;;;;5011547;28;20209;-72
2021/07/06 09:57:03;;;;;;;0.98;0.45;;;;;;;;;;5017268;28;20197;-72
2021/07/06 10:00:08;;;;;;;0.60;0.50;;;;;;;;;;5012918;28;20645;-72
2021/07/06 10:03:21;;;;;;;1.02;0.70;;;;;;;;;;5013176;28;20174;-73
2021/07/06 10:06:27;;;;;;;4.05;0.80;;;;;;;;;;4990217;28;20186;-73
2021/07/06 10:09:32;;;;;;;8.95;1.15;;;;;;;;;;4997705;28;20221;-72
2021/07/06 10:12:39;;;;;;;1.00;0.70;;;;;;;;;;5013554;28;20201;-72
2021/07/06 10:15:43;;;;;;;1.48;0.60;;;;;;;;;;5004478;28;20575;-72
2021/07/06 10:18:49;;;;;;;0.65;0.60;;;;;;;;;;5008996;28;20221;-71
2021/07/06 10:21:54;;;;;;;1.20;0.52;;;;;;;;;;5020680;28;20197;-72
2021/07/06 10:25:00;;;;;;;1.05;0.70;;;;;;;;;;5030498;28;20196;-72
2021/07/06 10:28:06;;;;;;;1.80;0.60;;;;;;;;;;5013483;28;20229;-73
2021/07/06 10:31:16;;;;;;;0.73;0.60;;;;;;;;;;5038024;23;20201;-83
2021/07/06 10:34:22;;;;;;;0.70;0.60;;;;;;;;;;4981336;28;20213;-84
2021/07/06 10:37:30;;;;;;;1.63;0.60;;;;;;;;;;5025849;28;20660;-85
2021/07/06 10:40:42;;;;;;;3.60;0.75;;;;;;;;;;5002970;28;20193;-84
2021/07/06 10:43:46;;;;;;;1.23;0.60;;;;;;;;;;5005274;28;20183;-83
2021/07/06 10:46:50;;;;;;;1.48;0.70;;;;;;;;;;4975619;28;20175;-83
2021/07/06 10:49:54;;;;;;;1.92;0.60;;;;;;;;;;4953807;28;20202;-82
2021/07/06 10:53:18;;;;;;;0.85;0.60;;;;;;;;;;4964151;28;20218;-83
2021/07/06 10:56:34;;;;;;;0.85;0.70;;;;;;;;;;4957044;28;20207;-83
2021/07/06 10:59:39;;;;;;;0.90;0.73;;;;;;;;;;4994491;28;20187;-83
2021/07/06 11:02:43;;;;;;;1.83;1.00;;;;;;;;;;4993480;28;20230;-82
2021/07/06 11:05:47;;;;;;;1.05;0.70;;;;;;;;;;4987862;28;20202;-82
2021/07/06 11:08:51;;;;;;;1.38;0.82;;;;;;;;;;4974723;28;20555;-82
2021/07/06 11:12:25;;;;;;;1.02;0.57;;;;;;;;;;4996337;28;20222;-82
2021/07/06 11:15:31;;;;;;;1.83;0.70;;;;;;;;;;4971679;28;20210;-82
2021/07/06 11:18:41;;;;;;;0.75;0.60;;;;;;;;;;4993961;28;20183;-83
2021/07/06 11:21:45;;;;;;;2.35;0.60;;;;;;;;;;4963679;28;20222;-83
2021/07/06 11:24:49;;;;;;;7.97;1.25;;;;;;;;;;4964750;28;20504;-83
2021/07/06 11:28:07;;;;;;;1.92;0.60;;;;;;;;;;4975102;28;20186;-83
2021/07/06 11:31:17;;;;;;;0.90;0.70;;;;;;;;;;4964144;28;20187;-82
2021/07/06 11:34:21;;;;;;;1.05;0.77;;;;;;;;;;4976273;28;20183;-83
2021/07/06 11:37:25;;;;;;;1.25;0.68;;;;;;;;;;4987258;28;20186;-83
2021/07/06 11:40:29;;;;;;;5.68;0.95;;;;;;;;;;4986700;28;20187;-83
2021/07/06 11:43:34;;;;;;;0.85;0.63;;;;;;;;;;4986555;28;20178;-83
2021/07/06 11:46:39;;;;;;;0.73;0.60;;;;;;;;;;4997794;28;20178;-83
2021/07/06 11:49:43;;;;;;;1.88;0.70;;;;;;;;;;4998176;28;20190;-83
2021/07/06 11:52:47;;;;;;;1.73;0.77;;;;;;;;;;4975807;28;20581;-83
2021/07/06 11:55:53;;;;;;;1.83;0.82;;;;;;;;;;4975196;28;20206;-83
2021/07/06 11:58:58;;;;;;;12.52;1.10;;;;;;;;;;4986818;28;20183;-82
2021/07/06 12:02:14;;;;;;;0.93;0.60;;;;;;;;;;4975714;28;20214;-83
2021/07/06 12:05:19;;;;;;;3.35;0.70;;;;;;;;;;4978015;28;20184;-83
2021/07/06 12:08:28;;;;;;;8.10;1.17;;;;;;;;;;4966443;28;20638;-84
2021/07/06 12:11:32;;;;;;;2.33;0.77;;;;;;;;;;4969424;28;20226;-83
2021/07/06 12:14:44;;;;;;;2.55;0.98;;;;;;;;;;4985112;28;20182;-83
2021/07/06 12:17:48;;;;;;;3.28;0.70;;;;;;;;;;4997008;28;20195;-83
2021/07/06 12:20:59;;;;;;;0.82;0.60;;;;;;;;;;4997901;28;20178;-83
2021/07/06 12:24:05;;;;;;;0.60;0.60;;;;;;;;;;4997166;28;20548;-83
2021/07/06 12:27:12;;;;;;;2.05;0.70;;;;;;;;;;5000708;28;20190;-83
2021/07/06 12:30:16;;;;;;;0.90;0.60;;;;;;;;;;4978259;28;20199;-83
2021/07/06 12:33:25;;;;;;;1.70;0.55;;;;;;;;;;4985634;28;20696;-83
2021/07/06 12:36:56;;;;;;;2.92;0.80;;;;;;;;;;4986565;28;20207;-83
2021/07/06 12:40:03;;;;;;;1.92;0.70;;;;;;;;;;4996842;28;20523;-83
2021/07/06 12:43:10;;;;;;;5.80;0.90;;;;;;;;;;4985275;28;20214;-83
2021/07/06 12:46:15;;;;;;;3.40;0.80;;;;;;;;;;4965400;28;20180;-83
2021/07/06 12:49:25;;;;;;;1.10;0.70;;;;;;;;;;4964354;28;20191;-83
2021/07/06 12:52:40;;;;;;;2.83;0.70;;;;;;;;;;4975707;28;20223;-83
2021/07/06 12:55:45;;;;;;;1.65;0.47;;;;;;;;;;4965019;28;20565;-83
2021/07/06 12:58:49;;;;;;;1.52;0.80;;;;;;;;;;4965311;28;20529;-82
2021/07/06 13:01:54;;;;;;;2.60;0.70;;;;;;;;;;4976027;28;20693;-83
2021/07/06 13:04:58;;;;;;;0.80;0.80;;;;;;;;;;4987696;28;20183;-83
2021/07/06 13:08:02;;;;;;;4.13;0.82;;;;;;;;;;4964757;28;20179;-84
2021/07/06 13:11:16;;;;;;;2.53;1.00;;;;;;;;;;4974842;28;20665;-84
2021/07/06 13:14:22;;;;;;;1.60;0.50;;;;;;;;;;5014589;28;20177;-83
2021/07/06 13:17:29;;;;;;;1.95;0.70;;;;;;;;;;4991797;28;20209;-83
2021/07/06 13:20:37;;;;;;;1.60;0.60;;;;;;;;;;4965283;28;20187;-83
2021/07/06 13:23:42;;;;;;;2.25;0.57;;;;;;;;;;4953586;28;20183;-83
2021/07/06 13:26:46;;;;;;;4.72;1.70;;;;;;;;;;4992180;28;20194;-84
2021/07/06 13:29:51;;;;;;;1.35;0.80;;;;;;;;;;4966819;28;20191;-83
2021/07/06 13:32:55;;;;;;;2.10;0.63;;;;;;;;;;5001878;28;20235;-83
2021/07/06 13:35:59;;;;;;;1.35;0.70;;;;;;;;;;4986160;28;20211;-83
2021/07/06 13:39:04;;;;;;;2.03;0.70;;;;;;;;;;4958961;28;20194;-84
2021/07/06 13:42:08;;;;;;;0.85;0.60;;;;;;;;;;4953058;28;20223;-83
2021/07/06 13:45:15;;;;;;;0.80;0.70;;;;;;;;;;4975133;28;20187;-84
2021/07/06 13:48:19;;;;;;;2.28;0.80;;;;;;;;;;4980178;28;20190;-83
2021/07/06 13:51:23;;;;;;;2.15;0.65;;;;;;;;;;4991988;28;20641;-83
2021/07/06 13:54:30;;;;;;;17.25;1.42;;;;;;;;;;4979158;28;20198;-83
2021/07/06 13:57:34;;;;;;;12.27;1.13;;;;;;;;;;4963779;28;20211;-83
2021/07/06 14:00:39;;;;;;;1.05;0.65;;;;;;;;;;5004746;28;20657;-83
2021/07/06 14:03:44;;;;;;;2.10;0.75;;;;;;;;;;4983143;28;20182;-83
2021/07/06 14:06:49;;;;;;;24.27;3.35;;;;;;;;;;4994891;28;20179;-83
2021/07/06 14:09:53;;;;;;;2.25;0.90;;;;;;;;;;4982431;28;20532;-83
2021/07/06 14:12:58;;;;;;;3.65;0.82;;;;;;;;;;4963609;28;20230;-83
2021/07/06 14:16:02;;;;;;;2.35;0.90;;;;;;;;;;4993785;28;20217;-83
2021/07/06 14:19:05;;;;;;;1.35;0.50;;;;;;;;;;5002639;28;20185;-83
2021/07/06 14:22:09;;;;;;;4.78;0.80;;;;;;;;;;4971276;28;20704;-83
2021/07/06 14:25:14;;;;;;;3.15;0.75;;;;;;;;;;4985629;28;20206;-83
2021/07/06 14:28:18;;;;;;;3.17;0.70;;;;;;;;;;4975163;28;20179;-83
2021/07/06 14:31:22;;;;;;;1.67;0.70;;;;;;;;;;4995011;28;20190;-83
2021/07/06 14:34:27;;;;;;;5.22;0.80;;;;;;;;;;4994587;28;20194;-83
2021/07/06 14:37:31;;;;;;;2.08;0.60;;;;;;;;;;4990185;28;20668;-83
2021/07/06 14:40:35;;;;;;;8.10;0.82;;;;;;;;;;5014063;28;20194;-83
2021/07/06 14:43:39;;;;;;;3.78;1.17;;;;;;;;;;4979911;28;20194;-83
2021/07/06 14:46:44;;;;;;;1.98;1.10;;;;;;;;;;4996375;28;20182;-83
2021/07/06 14:49:48;;;;;;;4.35;1.13;;;;;;;;;;4978212;28;20195;-84
2021/07/06 14:52:53;;;;;;;9.55;1.45;;;;;;;;;;4976222;28;20222;-84
2021/07/06 14:55:57;;;;;;;3.58;1.20;;;;;;;;;;4997664;28;20215;-84
2021/07/06 14:59:01;;;;;;;4.15;1.30;;;;;;;;;;4975998;28;20179;-83
2021/07/06 15:02:05;;;;;;;5.47;1.55;;;;;;;;;;4976800;28;20564;-84
2021/07/06 15:05:10;;;;;;;4.38;1.15;;;;;;;;;;4953535;28;20199;-84
2021/07/06 15:08:14;;;;;;;5.22;1.45;;;;;;;;;;4963958;28;20199;-84
2021/07/06 15:11:18;;;;;;;10.68;1.58;;;;;;;;;;4965452;28;20186;-84
2021/07/06 15:14:22;;;;;;;2.72;0.95;;;;;;;;;;4968052;28;20187;-84
2021/07/06 15:17:26;;;;;;;5.47;0.93;;;;;;;;;;4978923;28;20219;-83
2021/07/06 15:20:31;;;;;;;3.38;0.85;;;;;;;;;;4956476;28;20179;-83
2021/07/06 15:23:35;;;;;;;2.63;1.13;;;;;;;;;;4957031;28;20175;-83
2021/07/06 15:26:40;;;;;;;2.95;1.00;;;;;;;;;;4978618;28;20205;-83
2021/07/06 15:29:44;;;;;;;6.63;1.00;;;;;;;;;;4977921;28;20188;-83
2021/07/06 15:32:48;;;;;;;4.30;1.20;;;;;;;;;;4967386;28;20237;-83
2021/07/06 15:35:52;;;;;;;1.90;1.15;;;;;;;;;;4978422;28;20543;-83
2021/07/06 15:38:56;;;;;;;3.63;1.10;;;;;;;;;;4985368;28;20198;-83
2021/07/06 15:42:01;;;;;;;2.30;1.00;;;;;;;;;;4975299;28;20228;-83
2021/07/06 15:45:05;;;;;;;5.72;1.20;;;;;;;;;;4968734;28;20196;-84
2021/07/06 15:48:10;;;;;;;3.00;1.38;;;;;;;;;;4992976;28;20541;-83
2021/07/06 15:51:14;;;;;;;2.30;1.13;;;;;;;;;;4989734;28;20206;-83
2021/07/06 15:54:19;;;;;;;5.35;1.10;;;;;;;;;;4990602;28;20669;-83
2021/07/06 15:57:27;;;;;;;1.38;1.08;;;;;;;;;;4985411;28;20211;-83
2021/07/06 16:00:31;;;;;;;1.67;0.85;;;;;;;;;;4981569;28;20203;-83
2021/07/06 16:03:35;;;;;;;0.95;0.73;;;;;;;;;;5006745;28;20209;-83
2021/07/06 16:06:40;;;;;;;3.30;0.95;;;;;;;;;;4985009;28;20175;-84
2021/07/06 16:09:47;;;;;;;3.72;0.80;;;;;;;;;;4993943;28;20213;-83
2021/07/06 16:12:51;;;;;;;3.17;0.90;;;;;;;;;;4976362;28;20566;-84
2021/07/06 16:15:55;;;;;;;3.85;1.35;;;;;;;;;;4957104;28;20190;-83
2021/07/06 16:18:59;;;;;;;1.95;0.80;;;;;;;;;;4977527;28;20189;-84
2021/07/06 16:22:03;;;;;;;4.65;1.05;;;;;;;;;;4981394;28;20223;-84
2021/07/06 16:25:08;;;;;;;1.90;0.80;;;;;;;;;;4986669;28;20184;-83
2021/07/06 16:28:12;;;;;;;1.67;0.70;;;;;;;;;;4963046;28;20200;-83
2021/07/06 16:31:16;;;;;;;1.38;0.80;;;;;;;;;;4955358;28;20203;-83
2021/07/06 16:34:20;;;;;;;1.90;1.03;;;;;;;;;;4955777;28;20183;-83
2021/07/06 16:37:26;;;;;;;2.53;0.80;;;;;;;;;;4984366;28;20209;-84
2021/07/06 16:40:30;;;;;;;3.03;0.80;;;;;;;;;;4997540;28;20196;-84
2021/07/06 16:43:36;;;;;;;6.07;1.10;;;;;;;;;;4986041;28;20193;-84
2021/07/06 16:46:40;;;;;;;1.37;0.50;;;;;;;;;;4985616;28;20184;-84
2021/07/06 16:49:45;;;;;;;2.30;0.83;;;;;;;;;;4982537;28;20192;-83
2021/07/06 17:58:15;;;;;;;1.97;1.20;;;;;;;;;;4960934;28;20215;-82
2021/07/06 18:01:19;;;;;;;2.03;1.10;;;;;;;;;;4949036;28;20940;-82
2021/07/06 18:04:36;;;;;;;1.23;1.00;;;;;;;;;;4965124;28;20199;-82
2021/07/06 18:07:40;;;;;;;3.00;1.20;;;;;;;;;;4974194;28;20182;-83
2021/07/06 18:10:46;;;;;;;2.07;1.23;;;;;;;;;;4963349;28;20171;-82
2021/07/06 18:13:50;;;;;;;1.67;1.30;;;;;;;;;;4985023;28;20191;-82
2021/07/06 18:16:54;;;;;;;1.40;1.30;;;;;;;;;;4984837;28;20959;-82
2021/07/06 18:19:58;;;;;;;3.37;1.40;;;;;;;;;;4984392;28;20183;-82
2021/07/06 18:23:03;;;;;;;1.93;0.83;;;;;;;;;;4973722;28;20230;-83
2021/07/06 18:26:07;;;;;;;1.13;0.90;;;;;;;;;;4974048;28;20186;-82
2021/07/06 18:29:12;;;;;;;1.33;0.90;;;;;;;;;;4973083;28;20206;-82
2021/07/06 18:32:16;;;;;;;1.50;1.10;;;;;;;;;;4971295;28;20681;-82
2021/07/06 18:35:21;;;;;;;1.60;1.03;;;;;;;;;;4954246;28;20191;-83
2021/07/06 18:38:25;;;;;;;3.53;0.93;;;;;;;;;;4981947;28;20213;-82
2021/07/06 18:41:29;;;;;;;2.53;1.10;;;;;;;;;;4984801;28;20562;-83
2021/07/06 18:44:33;;;;;;;1.27;0.90;;;;;;;;;;4952330;28;20515;-82
2021/07/06 18:47:38;;;;;;;3.03;1.00;;;;;;;;;;4985219;28;20194;-82
2021/07/06 18:50:42;;;;;;;1.10;0.90;;;;;;;;;;4971598;28;20202;-83
2021/07/06 18:53:47;;;;;;;2.67;0.93;;;;;;;;;;4974300;28;20178;-83
2021/07/06 18:56:52;;;;;;;3.43;1.07;;;;;;;;;;4984601;28;20185;-83
2021/07/06 18:59:57;;;;;;;1.43;0.90;;;;;;;;;;4986535;28;20182;-83
2021/07/06 19:03:01;;;;;;;2.03;0.80;;;;;;;;;;4997019;28;20549;-83
2021/07/06 19:06:06;;;;;;;2.63;1.10;;;;;;;;;;4997497;28;20198;-83
2021/07/06 19:09:10;;;;;;;2.07;1.03;;;;;;;;;;4983465;28;20527;-83
2021/07/06 19:12:14;;;;;;;2.63;1.10;;;;;;;;;;4984235;28;20226;-83
2021/07/06 19:15:19;;;;;;;1.53;1.20;;;;;;;;;;4975368;28;20182;-82
2021/07/06 19:18:23;;;;;;;2.90;1.00;;;;;;;;;;4963777;28;20215;-82
2021/07/06 19:21:29;;;;;;;6.00;1.00;;;;;;;;;;4982037;28;20563;-83
2021/07/06 19:24:35;;;;;;;1.17;0.90;;;;;;;;;;4970766;28;20198;-82
2021/07/06 19:27:48;;;;;;;1.43;0.93;;;;;;;;;;4992827;28;20186;-82
2021/07/06 19:31:12;;;;;;;2.97;1.10;;;;;;;;;;4977174;28;20210;-83
2021/07/06 19:34:16;;;;;;;3.60;1.10;;;;;;;;;;4974185;28;20187;-82
2021/07/06 19:37:22;;;;;;;2.03;0.90;;;;;;;;;;4974199;28;20215;-83